Dades meteomassalio
Diari Summary for Febrer 20, 2017 Units:  English    Metric   Both
« Previous Day
Next Day »
Diari Semanal Mensual Anual Personalitzat
  Maxima: Minima: Mijana:
Temperatura: TemperatureC °F 1.9 °F 7.3 °F
Rosada: DewpointC °F 0.9 °F 4.3 °F
Humitat: Humidity % 61 % 82 %
Velocitat del vent: WindSpeedKMH mph 0.0 mph 4.3 mph
Racha vent: WindSpeedGustKMH mph - -
Vent:- - WSW
Pressio: PressurehPa in 1025.6 in -
Pluja: 0.3 in    
Historical Graphs
 
 
Tabular Data for Febrer 20, 2017
Time Temperature Dew Point Pressure Wind Wind Speed Wind Gust Humidity Rainfall Rate (Hourly) solar Conditions
TemperatureC °F DewpointC °F PressurehPa in Calm     Humidity % HourlyPrecipMM in SolarRadiationWatts/m^2 W/m2 Conditions
00:04 2.8 °F 1.8 °F 1029.3 in Calm     93 % 0.0 in 0.0 W/m2 RA
00:09 2.7 °F 1.7 °F 1029.3 in Calm     93 % 0.0 in 0.0 W/m2 CLR
00:14 2.7 °F 1.7 °F 1029.3 in Calm     93 % 0.0 in 0.0 W/m2 CLR
00:20 2.7 °F 1.7 °F 1029.3 in Calm     93 % 0.0 in 0.0 W/m2 CLR
00:25 2.6 °F 1.6 °F 1029.3 in Calm     93 % 0.0 in 0.0 W/m2 CLR
00:30 2.8 °F 1.8 °F 1029.3 in Calm     93 % 0.0 in 0.0 W/m2 CLR
00:35 2.7 °F 1.7 °F 1029.3 in Calm     93 % 0.0 in 0.0 W/m2 CLR
00:40 2.5 °F 1.5 °F 1029.3 in Calm     93 % 0.0 in 0.0 W/m2 CLR
00:45 2.5 °F 1.5 °F 1029.3 in Calm     93 % 0.0 in 0.0 W/m2 CLR
00:50 2.4 °F 1.4 °F 1029.3 in Calm     93 % 0.0 in 0.0 W/m2 CLR
00:55 2.4 °F 1.4 °F 1029.3 in Calm     93 % 0.0 in 0.0 W/m2 CLR
01:00 2.4 °F 1.4 °F 1029.3 in SW 5.6 mph 5.6 mph 93 % 0.0 in 0.0 W/m2 CLR
01:05 2.6 °F 1.7 °F 1029.3 in Calm     94 % 0.0 in 0.0 W/m2 CLR
01:10 2.6 °F 1.6 °F 1029.3 in Calm     93 % 0.0 in 0.0 W/m2 CLR
01:15 2.7 °F 1.7 °F 1029.3 in Calm     93 % 0.0 in 0.0 W/m2 CLR
01:20 2.6 °F 1.6 °F 1029.3 in Calm     93 % 0.0 in 0.0 W/m2 CLR
01:25 2.5 °F 1.5 °F 1029.3 in Calm     93 % 0.0 in 0.0 W/m2 CLR
01:30 2.6 °F 1.6 °F 1029.3 in Calm     93 % 0.0 in 0.0 W/m2 CLR
01:35 2.5 °F 1.5 °F 1029.3 in Calm     93 % 0.0 in 0.0 W/m2 CLR
01:40 2.4 °F 1.4 °F 1029.3 in Calm     93 % 0.0 in 0.0 W/m2 CLR
01:41 2.4 °F 1.4 °F 1029.3 in Calm     93 % 0.0 in 0.0 W/m2 CLR
01:46 2.4 °F 1.4 °F 1029.3 in Calm     93 % 0.0 in 0.0 W/m2 CLR
01:51 2.6 °F 1.7 °F 1029.3 in Calm     94 % 0.0 in 0.0 W/m2 CLR
01:56 2.7 °F 1.7 °F 1029.3 in Calm     93 % 0.0 in 0.0 W/m2 CLR
02:01 2.8 °F 1.8 °F 1029.3 in Calm     93 % 0.0 in 0.0 W/m2 CLR
02:06 2.9 °F 2.0 °F 1029.3 in Calm     94 % 0.0 in 0.0 W/m2 CLR
02:11 2.9 °F 1.9 °F 1029.3 in Calm     93 % 0.0 in 0.0 W/m2 CLR
02:16 2.9 °F 1.9 °F 1029.3 in Calm     93 % 0.0 in 0.0 W/m2 CLR
02:21 2.9 °F 1.9 °F 1029.3 in Calm     93 % 0.0 in 0.0 W/m2 CLR
02:26 2.7 °F 1.7 °F 1029.3 in Calm     93 % 0.0 in 0.0 W/m2 CLR
02:31 2.7 °F 1.7 °F 1029.3 in Calm     93 % 0.0 in 0.0 W/m2 CLR
02:36 2.6 °F 1.6 °F 1029.3 in Calm     93 % 0.0 in 0.0 W/m2 CLR
02:41 2.3 °F 1.1 °F 1029.0 in Calm     92 % 0.0 in 0.0 W/m2 CLR
02:46 1.9 °F 0.9 °F 1029.0 in Calm     93 % 0.0 in 0.0 W/m2 CLR
02:51 1.9 °F 0.9 °F 1029.3 in Calm     93 % 0.0 in 0.0 W/m2 CLR
02:56 2.1 °F 1.1 °F 1029.3 in Calm     93 % 0.0 in 0.0 W/m2 CLR
03:01 2.1 °F 1.1 °F 1029.3 in Calm     93 % 0.0 in 0.0 W/m2 CLR
03:06 2.2 °F 1.2 °F 1029.3 in Calm     93 % 0.0 in 0.0 W/m2 CLR
03:11 2.4 °F 1.5 °F 1029.3 in Calm     94 % 0.0 in 0.0 W/m2 CLR
03:16 2.2 °F 1.2 °F 1029.3 in Calm     93 % 0.0 in 0.0 W/m2 CLR
03:21 2.2 °F 1.2 °F 1029.3 in Calm     93 % 0.0 in 0.0 W/m2 CLR
03:26 2.3 °F 1.4 °F 1029.3 in Calm     94 % 0.0 in 0.0 W/m2 CLR
03:31 2.5 °F 1.6 °F 1029.3 in Calm     94 % 0.3 in 0.0 W/m2 RA
03:36 2.8 °F 1.9 °F 1029.0 in Calm     94 % 0.3 in 0.0 W/m2 CLR
03:41 2.8 °F 1.9 °F 1029.0 in Calm     94 % 0.3 in 0.0 W/m2 CLR
03:46 2.7 °F 1.7 °F 1029.0 in Calm     93 % 0.3 in 0.0 W/m2 CLR
03:51 2.7 °F 1.8 °F 1029.0 in Calm     94 % 0.3 in 0.0 W/m2 CLR
03:56 2.6 °F 1.7 °F 1029.0 in Calm     94 % 0.3 in 0.0 W/m2 CLR
04:01 2.6 °F 1.7 °F 1029.0 in Calm     94 % 0.3 in 0.0 W/m2 CLR
04:06 2.5 °F 1.5 °F 1029.0 in Calm     93 % 0.3 in 0.0 W/m2 CLR
04:11 2.4 °F 1.4 °F 1029.0 in Calm     93 % 0.3 in 0.0 W/m2 CLR
04:16 2.4 °F 1.5 °F 1028.7 in Calm     94 % 0.3 in 0.0 W/m2 CLR
04:21 2.4 °F 1.5 °F 1028.7 in Calm     94 % 0.3 in 0.0 W/m2 CLR
04:26 2.4 °F 1.5 °F 1028.7 in Calm     94 % 0.3 in 0.0 W/m2 CLR
04:31 2.4 °F 1.6 °F 1028.7 in Calm     94 % 0.0 in 0.0 W/m2 CLR
04:36 2.4 °F 1.5 °F 1028.7 in Calm     94 % 0.0 in 0.0 W/m2 CLR
04:41 2.4 °F 1.6 °F 1028.7 in Calm     94 % 0.0 in 0.0 W/m2 CLR
04:46 2.5 °F 1.6 °F 1028.7 in Calm     94 % 0.0 in 0.0 W/m2 CLR
04:51 2.5 °F 1.6 °F 1028.7 in Calm     94 % 0.0 in 0.0 W/m2 CLR
04:56 2.5 °F 1.6 °F 1028.7 in Calm     94 % 0.0 in 0.0 W/m2 CLR
05:02 2.6 °F 1.7 °F 1028.7 in Calm     94 % 0.0 in 0.0 W/m2 CLR
05:07 2.6 °F 1.7 °F 1028.7 in Calm     94 % 0.0 in 0.0 W/m2 CLR
05:12 2.6 °F 1.7 °F 1028.7 in Calm     94 % 0.0 in 0.0 W/m2 CLR
05:17 2.6 °F 1.7 °F 1028.7 in Calm     94 % 0.0 in 0.0 W/m2 CLR
05:22 2.7 °F 1.8 °F 1028.7 in Calm     94 % 0.0 in 0.0 W/m2 CLR
05:27 2.7 °F 1.8 °F 1028.7 in Calm     94 % 0.0 in 0.0 W/m2 CLR
05:32 2.7 °F 1.8 °F 1028.7 in Calm     94 % 0.0 in 0.0 W/m2 CLR
05:37 2.6 °F 1.7 °F 1028.7 in Calm     94 % 0.0 in 0.0 W/m2 CLR
05:42 2.6 °F 1.7 °F 1028.7 in Calm     94 % 0.0 in 0.0 W/m2 CLR
05:47 2.4 °F 1.6 °F 1029.0 in SW 7.4 mph 7.4 mph 94 % 0.0 in 0.0 W/m2 CLR
05:52 2.5 °F 1.6 °F 1028.7 in SW 5.6 mph 5.6 mph 94 % 0.0 in 0.0 W/m2 CLR
05:57 2.5 °F 1.6 °F 1028.7 in Calm     94 % 0.0 in 0.0 W/m2 CLR
06:02 2.5 °F 1.6 °F 1029.0 in Calm     94 % 0.0 in 0.0 W/m2 CLR
06:07 2.5 °F 1.6 °F 1029.0 in Calm     94 % 0.0 in 0.0 W/m2 CLR
06:12 2.5 °F 1.6 °F 1029.0 in SW 6.4 mph 6.4 mph 94 % 0.0 in 0.0 W/m2 CLR
06:17 2.6 °F 1.7 °F 1029.0 in Calm     94 % 0.0 in 0.0 W/m2 CLR
06:22 2.6 °F 1.7 °F 1029.0 in Calm     94 % 0.0 in 0.0 W/m2 CLR
06:27 2.6 °F 1.7 °F 1029.0 in Calm     94 % 0.0 in 0.0 W/m2 CLR
06:32 2.7 °F 1.8 °F 1029.0 in Calm     94 % 0.0 in 0.0 W/m2 CLR
06:37 2.7 °F 1.8 °F 1029.0 in Calm     94 % 0.0 in 0.0 W/m2 CLR
06:42 2.6 °F 1.6 °F 1029.0 in Calm     93 % 0.0 in 0.0 W/m2 CLR
06:47 2.6 °F 1.7 °F 1029.0 in Calm     94 % 0.0 in 0.0 W/m2 CLR
06:52 2.9 °F 2.0 °F 1029.0 in SW 5.6 mph 5.6 mph 94 % 0.0 in 0.0 W/m2 CLR
06:57 2.9 °F 2.1 °F 1029.0 in Calm     94 % 0.0 in 0.0 W/m2 CLR
07:02 3.1 °F 2.2 °F 1029.0 in Calm     94 % 0.0 in 0.0 W/m2 CLR
07:03 3.1 °F 2.2 °F 1029.0 in Calm     94 % 0.0 in 0.0 W/m2 CLR
07:08 3.0 °F 2.1 °F 1029.0 in Calm     94 % 0.0 in 0.0 W/m2 CLR
07:13 2.8 °F 1.9 °F 1029.0 in WSW 3.7 mph 4.0 mph 94 % 0.0 in 0.0 W/m2 CLR
07:18 3.2 °F 2.3 °F 1029.0 in Calm     94 % 0.0 in 0.0 W/m2 CLR
07:23 3.2 °F 2.3 °F 1029.3 in Calm     94 % 0.0 in 0.0 W/m2 CLR
07:28 2.9 °F 1.9 °F 1029.3 in Calm     93 % 0.0 in 0.0 W/m2 CLR
07:33 2.5 °F 1.5 °F 1029.3 in Calm     93 % 0.0 in 0.0 W/m2 CLR
07:38 2.2 °F 1.2 °F 1029.3 in Calm     93 % 0.0 in 0.0 W/m2 OVC
07:43 2.1 °F 1.1 °F 1029.3 in Calm     93 % 0.0 in 0.0 W/m2 OVC
07:48 2.1 °F 1.1 °F 1029.3 in Calm     93 % 0.0 in 5.0 W/m2 OVC
07:53 2.1 °F 1.2 °F 1029.7 in Calm     94 % 0.0 in 9.0 W/m2 BKN
07:58 2.1 °F 1.2 °F 1029.7 in Calm     94 % 0.0 in 12.0 W/m2 BKN
08:03 2.2 °F 1.3 °F 1029.7 in Calm     94 % 0.0 in 16.0 W/m2 BKN
08:08 2.4 °F 1.6 °F 1029.7 in Calm     94 % 0.0 in 21.0 W/m2 BKN
08:14 2.8 °F 1.9 °F 1029.7 in WSW 9.3 mph 9.3 mph 94 % 0.0 in 26.0 W/m2 BKN
08:19 3.8 °F 2.9 °F 1029.7 in WSW 12.9 mph 12.9 mph 94 % 0.0 in 33.0 W/m2 BKN
08:24 4.6 °F 3.7 °F 1029.7 in West 11.1 mph 11.1 mph 94 % 0.0 in 44.0 W/m2 BKN
08:29 5.1 °F 4.2 °F 1029.7 in WSW 13.0 mph 13.0 mph 94 % 0.0 in 56.0 W/m2 SCT
08:34 5.6 °F 4.7 °F 1029.7 in WSW 11.1 mph 11.1 mph 94 % 0.0 in 69.0 W/m2 SCT
08:39 5.9 °F 4.7 °F 1030.0 in WSW 7.4 mph 7.4 mph 92 % 0.0 in 79.0 W/m2 FEW
08:44 6.0 °F 4.7 °F 1030.0 in SW 9.3 mph 9.3 mph 91 % 0.0 in 95.0 W/m2 CLR
08:49 6.0 °F 4.7 °F 1030.0 in SW 9.3 mph 9.3 mph 91 % 0.0 in 90.0 W/m2 CLR
08:54 5.8 °F 4.3 °F 1030.0 in Calm     90 % 0.0 in 107.0 W/m2 CLR
08:59 5.8 °F 4.5 °F 1030.0 in Calm     91 % 0.0 in 116.0 W/m2 CLR
09:04 6.0 °F 4.7 °F 1030.0 in Calm     91 % 0.0 in 128.0 W/m2 CLR
09:09 6.3 °F 4.9 °F 1030.0 in Calm     91 % 0.0 in 116.0 W/m2 CLR
09:14 6.6 °F 5.2 °F 1030.0 in SW 8.0 mph 8.0 mph 91 % 0.0 in 146.0 W/m2 CLR
09:19 6.9 °F 5.4 °F 1030.0 in SW 8.0 mph 8.0 mph 90 % 0.0 in 202.0 W/m2 CLR
09:24 7.3 °F 5.7 °F 1030.0 in SW 9.3 mph 9.3 mph 90 % 0.0 in 214.0 W/m2 CLR
09:29 7.6 °F 5.9 °F 1030.0 in SW 7.4 mph 7.4 mph 89 % 0.0 in 234.0 W/m2 CLR
09:34 7.9 °F 6.0 °F 1030.0 in SW 9.7 mph 9.7 mph 88 % 0.0 in 248.0 W/m2 CLR
09:39 8.2 °F 6.2 °F 1030.0 in SW 9.7 mph 9.7 mph 87 % 0.0 in 262.0 W/m2 CLR
09:44 8.6 °F 6.4 °F 1030.0 in SW 5.6 mph 5.6 mph 86 % 0.0 in 274.0 W/m2 CLR
09:49 9.1 °F 6.3 °F 1030.0 in WSW 24.1 mph 24.1 mph 83 % 0.0 in 290.0 W/m2 CLR
09:54 9.3 °F 6.2 °F 1030.0 in West 11.3 mph 11.3 mph 81 % 0.0 in 302.0 W/m2 CLR
09:59 9.6 °F 6.3 °F 1030.0 in West 20.9 mph 20.9 mph 80 % 0.0 in 316.0 W/m2 CLR
10:04 9.7 °F 6.2 °F 1030.0 in West 14.8 mph 14.8 mph 79 % 0.0 in 332.0 W/m2 CLR
10:09 9.8 °F 6.1 °F 1030.0 in WSW 18.5 mph 18.5 mph 78 % 0.0 in 343.0 W/m2 CLR
10:14 9.9 °F 6.2 °F 1030.0 in SW 12.9 mph 12.9 mph 78 % 0.0 in 352.0 W/m2 CLR
10:19 10.0 °F 6.2 °F 1030.0 in SW 16.1 mph 16.1 mph 77 % 0.0 in 366.0 W/m2 CLR
10:24 10.1 °F 6.2 °F 1030.0 in West 13.0 mph 13.0 mph 77 % 0.0 in 387.0 W/m2 CLR
10:29 10.2 °F 6.3 °F 1030.0 in WSW 13.0 mph 13.0 mph 77 % 0.0 in 390.0 W/m2 CLR
10:34 10.3 °F 6.2 °F 1030.0 in WNW 18.5 mph 18.5 mph 76 % 0.0 in 403.0 W/m2 CLR
10:39 10.3 °F 6.5 °F 1030.0 in WNW 13.0 mph 13.0 mph 77 % 0.0 in 415.0 W/m2 CLR
10:44 10.4 °F 6.4 °F 1030.0 in WNW 13.0 mph 13.0 mph 76 % 0.0 in 420.0 W/m2 CLR
10:49 10.5 °F 6.4 °F 1030.0 in West 9.7 mph 9.7 mph 76 % 0.0 in 438.0 W/m2 CLR
10:54 10.6 °F 6.2 °F 1030.0 in West 18.5 mph 18.5 mph 74 % 0.0 in 448.0 W/m2 CLR
10:59 10.6 °F 6.3 °F 1030.0 in West 18.5 mph 18.5 mph 75 % 0.0 in 464.0 W/m2 CLR
11:04 10.8 °F 6.7 °F 1029.7 in NW 18.5 mph 18.5 mph 76 % 0.0 in 471.0 W/m2 CLR
11:09 10.7 °F 6.3 °F 1029.7 in WSW 18.5 mph 18.5 mph 74 % 0.0 in 476.0 W/m2 CLR
11:14 10.8 °F 6.3 °F 1029.7 in WNW 20.9 mph 20.9 mph 74 % 0.0 in 515.0 W/m2 CLR
11:19 10.9 °F 6.6 °F 1029.7 in West 18.5 mph 18.5 mph 75 % 0.0 in 149.0 W/m2 CLR
11:24 11.0 °F 6.7 °F 1029.7 in NW 13.0 mph 13.0 mph 75 % 0.0 in 573.0 W/m2 CLR
11:29 11.3 °F 7.3 °F 1029.7 in WNW 5.6 mph 6.0 mph 76 % 0.0 in 610.0 W/m2 CLR
11:34 11.4 °F 6.3 °F 1029.7 in West 18.5 mph 18.5 mph 71 % 0.0 in 619.0 W/m2 CLR
11:39 11.4 °F 6.7 °F 1029.3 in WSW 9.3 mph 9.3 mph 73 % 0.0 in 610.0 W/m2 CLR
11:44 11.6 °F 6.7 °F 1029.3 in WSW 12.9 mph 12.9 mph 72 % 0.0 in 629.0 W/m2 CLR
11:49 11.8 °F 6.9 °F 1029.7 in WNW 13.0 mph 13.0 mph 72 % 0.0 in 642.0 W/m2 CLR
11:54 11.7 °F 6.2 °F 1029.3 in West 18.5 mph 18.5 mph 69 % 0.0 in 153.0 W/m2 CLR
11:59 11.5 °F 6.4 °F 1029.3 in West 9.3 mph 9.3 mph 71 % 0.0 in 626.0 W/m2 CLR
12:04 11.8 °F 6.7 °F 1029.3 in SW 13.0 mph 13.0 mph 71 % 0.0 in 659.0 W/m2 CLR
12:10 12.0 °F 6.5 °F 1029.3 in West 13.0 mph 13.0 mph 69 % 0.0 in 696.0 W/m2 CLR
12:15 12.0 °F 6.7 °F 1029.3 in WNW 16.7 mph 16.7 mph 70 % 0.0 in 679.0 W/m2 CLR
12:20 12.3 °F 7.0 °F 1029.3 in West 11.1 mph 11.1 mph 70 % 0.0 in 710.0 W/m2 CLR
12:25 12.5 °F 7.2 °F 1029.0 in NNW 14.5 mph 14.5 mph 70 % 0.0 in 735.0 W/m2 CLR
12:30 12.4 °F 6.8 °F 1029.0 in NW 14.8 mph 14.8 mph 69 % 0.0 in 693.0 W/m2 CLR
12:35 12.4 °F 7.1 °F 1029.0 in WNW 14.8 mph 14.8 mph 70 % 0.0 in 703.0 W/m2 CLR
12:40 12.3 °F 6.8 °F 1029.0 in NW 14.8 mph 14.8 mph 69 % 0.0 in 192.0 W/m2 CLR
12:45 11.9 °F 6.4 °F 1028.7 in WNW 13.0 mph 13.0 mph 69 % 0.0 in 144.0 W/m2 CLR
12:50 11.8 °F 6.5 °F 1028.7 in WNW 12.9 mph 12.9 mph 70 % 0.0 in 218.0 W/m2 CLR
12:55 12.0 °F 6.3 °F 1028.7 in West 12.9 mph 12.9 mph 68 % 0.0 in 250.0 W/m2 CLR
13:00 11.9 °F 6.2 °F 1028.7 in West 14.8 mph 14.8 mph 68 % 0.0 in 670.0 W/m2 CLR
13:05 12.3 °F 6.2 °F 1028.7 in WSW 13.0 mph 13.0 mph 66 % 0.0 in 656.0 W/m2 CLR
13:10 12.7 °F 6.9 °F 1028.3 in NW 18.5 mph 18.5 mph 68 % 0.0 in 675.0 W/m2 CLR
13:15 12.7 °F 6.5 °F 1028.3 in West 13.0 mph 13.0 mph 66 % 0.0 in 673.0 W/m2 CLR
13:20 12.9 °F 6.7 °F 1028.3 in WSW 13.0 mph 13.0 mph 66 % 0.0 in 712.0 W/m2 CLR
13:25 13.1 °F 6.7 °F 1028.3 in West 14.8 mph 14.8 mph 65 % 0.0 in 703.0 W/m2 CLR
13:30 13.1 °F 6.4 °F 1028.0 in WSW 9.3 mph 9.3 mph 64 % 0.0 in 671.0 W/m2 CLR
13:35 13.2 °F 6.6 °F 1028.0 in WSW 6.4 mph 6.4 mph 64 % 0.0 in 673.0 W/m2 CLR
13:40 13.5 °F 6.8 °F 1028.0 in WSW 11.1 mph 11.1 mph 64 % 0.0 in 673.0 W/m2 CLR
13:45 13.4 °F 6.6 °F 1028.0 in West 9.3 mph 9.3 mph 63 % 0.0 in 679.0 W/m2 CLR
13:50 13.5 °F 7.3 °F 1027.7 in NNW 13.0 mph 13.0 mph 66 % 0.0 in 638.0 W/m2 CLR
13:55 13.4 °F 7.4 °F 1027.7 in NW 9.3 mph 9.3 mph 67 % 0.0 in 615.0 W/m2 CLR
14:00 13.5 °F 7.5 °F 1027.7 in NNW 11.3 mph 11.3 mph 67 % 0.0 in 613.0 W/m2 CLR
14:05 13.4 °F 7.6 °F 1027.3 in North 18.5 mph 18.5 mph 68 % 0.0 in 626.0 W/m2 CLR
14:10 13.3 °F 7.3 °F 1027.3 in NNW 13.0 mph 13.0 mph 67 % 0.0 in 603.0 W/m2 CLR
14:15 13.4 °F 7.7 °F 1027.3 in NNW 9.3 mph 9.3 mph 68 % 0.0 in 594.0 W/m2 CLR
14:20 13.6 °F 7.2 °F 1027.0 in NW 3.7 mph   65 % 0.0 in 610.0 W/m2 CLR
14:25 13.3 °F 6.9 °F 1027.0 in North 7.4 mph 7.4 mph 65 % 0.0 in 584.0 W/m2 CLR
14:30 13.3 °F 6.9 °F 1027.0 in NE 9.3 mph 9.3 mph 65 % 0.0 in 577.0 W/m2 CLR
14:35 13.4 °F 7.4 °F 1027.0 in North 9.7 mph 9.7 mph 67 % 0.0 in 564.0 W/m2 CLR
14:40 13.8 °F 7.3 °F 1027.0 in NNW 9.3 mph 9.3 mph 65 % 0.0 in 566.0 W/m2 CLR
14:45 13.9 °F 7.4 °F 1027.0 in NNE 7.4 mph 7.4 mph 65 % 0.0 in 554.0 W/m2 CLR
14:50 13.9 °F 7.4 °F 1026.6 in NW 7.4 mph 7.4 mph 65 % 0.0 in 538.0 W/m2 CLR
14:55 14.0 °F 7.5 °F 1026.6 in NNW 13.0 mph 13.0 mph 65 % 0.0 in 534.0 W/m2 CLR
15:00 13.9 °F 7.2 °F 1026.6 in North 3.7 mph 3.7 mph 64 % 0.0 in 527.0 W/m2 CLR
15:05 14.0 °F 7.3 °F 1026.6 in North 14.8 mph 14.8 mph 64 % 0.0 in 515.0 W/m2 CLR
15:10 14.1 °F 7.6 °F 1026.6 in North 3.7 mph   65 % 0.0 in 517.0 W/m2 CLR
15:15 14.3 °F 7.6 °F 1026.6 in NW 11.1 mph 11.1 mph 64 % 0.0 in 506.0 W/m2 CLR
15:20 14.4 °F 7.4 °F 1026.3 in North 13.0 mph 13.0 mph 63 % 0.0 in 490.0 W/m2 CLR
15:25 14.3 °F 6.9 °F 1026.3 in NNW 7.4 mph 7.4 mph 61 % 0.0 in 476.0 W/m2 CLR
15:30 14.4 °F 7.5 °F 1026.3 in Calm     63 % 0.0 in 464.0 W/m2 CLR
15:35 14.6 °F 7.6 °F 1026.3 in West 9.3 mph 9.3 mph 63 % 0.0 in 450.0 W/m2 CLR
15:40 14.6 °F 7.3 °F 1026.3 in NW 13.0 mph 13.0 mph 62 % 0.0 in 439.0 W/m2 CLR
15:45 14.3 °F 7.1 °F 1026.3 in North 5.6 mph   62 % 0.0 in 424.0 W/m2 CLR
15:50 14.3 °F 7.3 °F 1026.0 in Calm     63 % 0.0 in 410.0 W/m2 CLR
15:55 14.6 °F 7.3 °F 1026.0 in Calm     62 % 0.0 in 408.0 W/m2 CLR
16:00 14.6 °F 7.6 °F 1026.0 in NW 9.3 mph 9.3 mph 63 % 0.0 in 396.0 W/m2 CLR
16:05 14.8 °F 8.1 °F 1026.0 in NNW 12.9 mph 12.9 mph 64 % 0.0 in 387.0 W/m2 CLR
16:10 14.6 °F 7.1 °F 1026.0 in North 11.3 mph 11.3 mph 61 % 0.0 in 366.0 W/m2 CLR
16:15 14.3 °F 7.1 °F 1026.0 in NNE 14.8 mph 14.8 mph 62 % 0.0 in 353.0 W/m2 CLR
16:20 14.1 °F 7.3 °F 1026.0 in NNE 5.6 mph 5.6 mph 64 % 0.0 in 348.0 W/m2 CLR
16:25 14.1 °F 7.4 °F 1026.0 in North 5.6 mph 5.6 mph 64 % 0.0 in 339.0 W/m2 CLR
16:30 14.3 °F 7.3 °F 1026.0 in NNW 11.1 mph 11.1 mph 63 % 0.0 in 323.0 W/m2 CLR
16:35 14.2 °F 7.4 °F 1026.0 in North 7.4 mph 7.4 mph 64 % 0.0 in 306.0 W/m2 CLR
16:40 14.3 °F 7.6 °F 1025.6 in North 9.3 mph 9.3 mph 64 % 0.0 in 294.0 W/m2 CLR
16:45 14.2 °F 7.5 °F 1025.6 in North 9.3 mph 9.3 mph 64 % 0.0 in 281.0 W/m2 CLR
16:50 14.1 °F 7.3 °F 1025.6 in NNE 8.0 mph 8.0 mph 64 % 0.0 in 264.0 W/m2 CLR
16:56 14.0 °F 7.5 °F 1025.6 in NNW 5.6 mph 5.6 mph 65 % 0.0 in 251.0 W/m2 CLR
17:01 14.1 °F 7.6 °F 1025.6 in NW 8.0 mph 8.0 mph 65 % 0.0 in 230.0 W/m2 CLR
17:06 14.1 °F 7.6 °F 1025.6 in North 7.4 mph 7.4 mph 65 % 0.0 in 214.0 W/m2 CLR
17:11 13.9 °F 7.2 °F 1025.6 in North 7.4 mph 7.4 mph 64 % 0.0 in 204.0 W/m2 CLR
17:16 13.8 °F 7.3 °F 1025.6 in North 7.4 mph 7.4 mph 65 % 0.0 in 185.0 W/m2 CLR
17:21 13.8 °F 7.3 °F 1025.6 in North 6.4 mph 6.4 mph 65 % 0.0 in 169.0 W/m2 CLR
17:26 13.7 °F 7.1 °F 1025.6 in North 5.6 mph 5.6 mph 64 % 0.0 in 151.0 W/m2 CLR
17:31 13.7 °F 7.4 °F 1025.6 in Calm     66 % 0.0 in 135.0 W/m2 CLR
17:41 13.6 °F 7.1 °F 1025.6 in North 7.4 mph 7.4 mph 65 % 0.0 in 102.0 W/m2 CLR
17:46 13.5 °F 7.1 °F 1025.6 in Calm     65 % 0.0 in 86.0 W/m2 CLR
17:51 13.4 °F 7.0 °F 1025.6 in Calm     65 % 0.0 in 72.0 W/m2 FEW
17:56 13.4 °F 7.0 °F 1025.6 in Calm     65 % 0.0 in 56.0 W/m2 SCT
18:01 13.3 °F 6.9 °F 1025.6 in Calm     65 % 0.0 in 51.0 W/m2 SCT
18:06 13.3 °F 6.8 °F 1025.6 in Calm     65 % 0.0 in 39.0 W/m2 BKN
18:11 13.3 °F 7.1 °F 1025.6 in Calm     66 % 0.0 in 30.0 W/m2 BKN
18:16 13.2 °F 6.9 °F 1026.0 in Calm     66 % 0.0 in 23.0 W/m2 BKN
18:21 12.9 °F 6.7 °F 1026.0 in Calm     66 % 0.0 in 18.0 W/m2 BKN
18:26 12.7 °F 6.7 °F 1026.0 in Calm     67 % 0.0 in 14.0 W/m2 BKN
18:27 12.6 °F 6.4 °F 1026.0 in Calm     66 % 0.0 in 14.0 W/m2 BKN
18:32 12.4 °F 6.7 °F 1026.0 in Calm     68 % 0.0 in 9.0 W/m2 BKN
18:37 12.1 °F 6.6 °F 1026.0 in Calm     69 % 0.0 in 5.0 W/m2 BKN
18:42 11.6 °F 6.5 °F 1026.0 in Calm     71 % 0.0 in 0.0 W/m2 OVC
18:47 11.2 °F 6.3 °F 1026.0 in Calm     72 % 0.0 in 0.0 W/m2 OVC
18:52 10.8 °F 6.3 °F 1026.0 in Calm     74 % 0.0 in 0.0 W/m2 CLR
18:57 10.5 °F 6.3 °F 1026.3 in Calm     75 % 0.0 in 0.0 W/m2 CLR
19:02 10.3 °F 6.2 °F 1026.3 in Calm     76 % 0.0 in 0.0 W/m2 CLR
19:07 10.2 °F 6.1 °F 1026.3 in Calm     76 % 0.0 in 0.0 W/m2 CLR
19:13 10.0 °F 5.9 °F 1026.3 in Calm     76 % 0.0 in 0.0 W/m2 CLR
19:18 9.8 °F 5.9 °F 1026.6 in Calm     77 % 0.0 in 0.0 W/m2 CLR
19:23 9.6 °F 5.9 °F 1026.6 in Calm     78 % 0.0 in 0.0 W/m2 CLR
19:28 9.4 °F 5.9 °F 1026.6 in Calm     79 % 0.0 in 0.0 W/m2 CLR
19:33 9.2 °F 5.9 °F 1026.6 in Calm     80 % 0.0 in 0.0 W/m2 CLR
19:38 8.9 °F 5.7 °F 1026.6 in Calm     80 % 0.0 in 0.0 W/m2 CLR
19:43 8.7 °F 5.7 °F 1026.6 in Calm     81 % 0.0 in 0.0 W/m2 CLR
19:48 8.4 °F 5.5 °F 1027.0 in Calm     82 % 0.0 in 0.0 W/m2 CLR
19:53 8.2 °F 5.4 °F 1026.6 in Calm     83 % 0.0 in 0.0 W/m2 CLR
19:58 8.0 °F 5.3 °F 1027.0 in Calm     83 % 0.0 in 0.0 W/m2 CLR
19:59 7.9 °F 5.2 °F 1027.0 in Calm     83 % 0.0 in 0.0 W/m2 CLR
20:04 7.7 °F 5.2 °F 1027.0 in Calm     84 % 0.0 in 0.0 W/m2 CLR
20:09 7.6 °F 5.2 °F 1027.0 in Calm     85 % 0.0 in 0.0 W/m2 CLR
20:14 7.3 °F 5.0 °F 1027.0 in Calm     85 % 0.0 in 0.0 W/m2 CLR
20:19 7.2 °F 4.8 °F 1027.0 in Calm     85 % 0.0 in 0.0 W/m2 CLR
20:24 6.9 °F 4.8 °F 1027.0 in Calm     86 % 0.0 in 0.0 W/m2 CLR
20:29 6.8 °F 4.7 °F 1027.0 in Calm     86 % 0.0 in 0.0 W/m2 CLR
20:34 6.7 °F 4.7 °F 1027.0 in Calm     87 % 0.0 in 0.0 W/m2 CLR
20:39 6.6 °F 4.6 °F 1027.3 in Calm     87 % 0.0 in 0.0 W/m2 CLR
20:44 6.4 °F 4.4 °F 1027.0 in Calm     87 % 0.0 in 0.0 W/m2 CLR
20:49 6.3 °F 4.3 °F 1027.3 in Calm     87 % 0.0 in 0.0 W/m2 CLR
20:54 6.2 °F 4.4 °F 1027.3 in Calm     88 % 0.0 in 0.0 W/m2 CLR
20:59 6.2 °F 4.3 °F 1027.3 in Calm     88 % 0.0 in 0.0 W/m2 CLR
21:04 6.1 °F 4.2 °F 1027.3 in Calm     88 % 0.0 in 0.0 W/m2 CLR
21:09 5.9 °F 4.1 °F 1027.3 in Calm     88 % 0.0 in 0.0 W/m2 CLR
21:14 5.9 °F 4.1 °F 1027.3 in Calm     88 % 0.0 in 0.0 W/m2 CLR
21:19 5.8 °F 3.9 °F 1027.3 in Calm     88 % 0.0 in 0.0 W/m2 CLR
21:24 5.7 °F 3.8 °F 1027.7 in Calm     88 % 0.0 in 0.0 W/m2 CLR
21:29 5.6 °F 3.9 °F 1027.7 in Calm     89 % 0.0 in 0.0 W/m2 CLR
21:31 5.6 °F 3.9 °F 1027.7 in Calm     89 % 0.0 in 0.0 W/m2 CLR
21:36 5.6 °F 3.9 °F 1027.7 in Calm     89 % 0.0 in 0.0 W/m2 CLR
21:41 5.6 °F 3.9 °F 1027.7 in Calm     89 % 0.0 in 0.0 W/m2 CLR
21:46 5.4 °F 3.8 °F 1027.7 in Calm     89 % 0.0 in 0.0 W/m2 CLR
21:51 5.3 °F 3.5 °F 1027.7 in Calm     88 % 0.0 in 0.0 W/m2 CLR
21:56 5.1 °F 3.3 °F 1027.7 in Calm     88 % 0.0 in 0.0 W/m2 CLR
22:01 5.0 °F 3.3 °F 1028.0 in Calm     89 % 0.0 in 0.0 W/m2 CLR
22:02 4.9 °F 3.3 °F 1028.0 in Calm     89 % 0.0 in 0.0 W/m2 CLR
22:07 4.9 °F 3.2 °F 1028.0 in Calm     89 % 0.0 in 0.0 W/m2 CLR
22:12 4.8 °F 3.2 °F 1028.0 in Calm     89 % 0.0 in 0.0 W/m2 CLR
22:17 4.8 °F 3.3 °F 1028.0 in Calm     90 % 0.0 in 0.0 W/m2 CLR
22:22 4.8 °F 3.3 °F 1028.0 in Calm     90 % 0.0 in 0.0 W/m2 CLR
22:27 4.7 °F 3.2 °F 1028.0 in Calm     90 % 0.0 in 0.0 W/m2 CLR
22:32 4.6 °F 3.1 °F 1028.0 in Calm     90 % 0.0 in 0.0 W/m2 CLR
22:37 4.5 °F 3.0 °F 1028.0 in Calm     90 % 0.0 in 0.0 W/m2 CLR
22:42 4.4 °F 2.9 °F 1028.0 in Calm     90 % 0.0 in 0.0 W/m2 CLR
22:47 4.3 °F 2.8 °F 1028.0 in Calm     90 % 0.0 in 0.0 W/m2 CLR
22:52 4.3 °F 2.8 °F 1028.3 in Calm     90 % 0.0 in 0.0 W/m2 CLR
22:57 4.2 °F 2.7 °F 1028.3 in Calm     90 % 0.0 in 0.0 W/m2 CLR
23:03 4.2 °F 2.7 °F 1028.3 in Calm     90 % 0.0 in 0.0 W/m2 CLR
23:08 4.1 °F 2.8 °F 1028.3 in Calm     91 % 0.0 in 0.0 W/m2 CLR
23:13 4.1 °F 2.6 °F 1028.3 in Calm     90 % 0.0 in 0.0 W/m2 CLR
23:18 4.1 °F 2.8 °F 1028.3 in Calm     91 % 0.0 in 0.0 W/m2 CLR
23:23 4.2 °F 2.8 °F 1028.3 in Calm     91 % 0.0 in 0.0 W/m2 CLR
23:28 4.2 °F 2.8 °F 1028.3 in Calm     91 % 0.0 in 0.0 W/m2 CLR
23:33 4.1 °F 2.8 °F 1028.3 in Calm     91 % 0.0 in 0.0 W/m2 CLR
23:38 4.1 °F 2.6 °F 1028.3 in Calm     90 % 0.0 in 0.0 W/m2 CLR
23:43 4.1 °F 2.7 °F 1028.3 in Calm     91 % 0.0 in 0.0 W/m2 CLR
23:48 3.9 °F 2.4 °F 1028.3 in Calm     90 % 0.0 in 0.0 W/m2 CLR
23:53 3.8 °F 2.4 °F 1028.3 in Calm     91 % 0.0 in 0.0 W/m2 CLR
23:58 3.7 °F 2.2 °F 1028.3 in Calm     90 % 0.0 in 0.0 W/m2 CLR
Lo Temps de Massalio
Compliments of Weather Underground - 1.25 mb